createdAt,value
2022-11-19T00:02:01.339Z,101464.22
2022-11-19T00:04:30.917Z,101471.28
2022-11-19T00:06:58.854Z,101476.59
2022-11-19T00:09:27.357Z,101467.84
2022-11-19T00:12:12.673Z,101467.81
2022-11-19T00:14:40.860Z,101471.34
2022-11-19T00:17:08.794Z,101474.09
2022-11-19T00:19:38.196Z,101481.03
2022-11-19T00:22:06.275Z,101484.56
2022-11-19T00:24:34.135Z,101475.00
2022-11-19T00:27:02.070Z,101481.06
2022-11-19T00:29:30.396Z,101472.34
2022-11-19T00:31:58.349Z,101487.25
2022-11-19T00:34:26.411Z,101486.47
2022-11-19T00:36:55.856Z,101480.34
2022-11-19T00:39:23.745Z,101485.53
2022-11-19T00:41:51.747Z,101488.13
2022-11-19T00:44:19.869Z,101491.63
2022-11-19T00:46:47.862Z,101488.16
2022-11-19T00:49:15.709Z,101493.41
2022-11-19T00:51:43.634Z,101486.41
2022-11-19T00:54:12.925Z,101495.16
2022-11-19T00:56:40.947Z,101498.66
2022-11-19T00:59:09.083Z,101496.97
2022-11-19T01:01:37.110Z,101503.84
2022-11-19T01:04:06.075Z,101504.78
2022-11-19T01:06:34.461Z,101503.97
2022-11-19T01:09:02.493Z,101510.09
2022-11-19T01:11:34.747Z,101511.81
2022-11-19T01:14:04.259Z,101516.22
2022-11-19T01:16:34.920Z,101520.53
2022-11-19T01:19:03.270Z,101517.06
2022-11-19T01:21:34.032Z,101514.44
2022-11-19T01:24:03.390Z,101517.16
2022-11-19T01:26:33.053Z,101510.09
2022-11-19T01:29:01.053Z,101521.47
2022-11-19T01:31:30.926Z,101512.72
2022-11-19T01:34:00.123Z,101523.22
2022-11-19T01:36:29.990Z,101522.41
2022-11-19T01:38:58.547Z,101531.19
2022-11-19T01:41:28.540Z,101527.72
2022-11-19T01:43:59.958Z,101526.94
2022-11-19T01:46:29.934Z,101528.63
2022-11-19T01:49:02.639Z,101532.94
2022-11-19T01:51:35.577Z,101530.31
2022-11-19T01:54:09.048Z,101533.00
2022-11-19T01:56:37.296Z,101529.59
2022-11-19T01:59:12.376Z,101532.25
2022-11-19T02:01:40.349Z,101533.09
2022-11-19T02:04:09.059Z,101540.09
2022-11-19T02:06:37.562Z,101545.31
2022-11-19T02:09:05.832Z,101547.16
2022-11-19T02:11:51.220Z,101546.28
2022-11-19T02:14:33.820Z,101548.91
2022-11-19T02:17:10.961Z,101552.44
2022-11-19T02:20:22.118Z,101550.69
2022-11-19T02:23:41.882Z,101542.03
2022-11-19T02:26:33.724Z,101541.13
2022-11-19T02:29:12.744Z,101561.22
2022-11-19T02:31:49.893Z,101557.78
2022-11-19T02:34:23.113Z,101566.53
2022-11-19T02:36:59.346Z,101566.50
2022-11-19T02:39:35.948Z,101566.50
2022-11-19T02:42:10.457Z,101566.56
2022-11-19T02:45:02.614Z,101564.81
2022-11-19T02:47:36.995Z,101569.19
2022-11-19T02:50:10.042Z,101575.31
2022-11-19T02:52:39.818Z,101569.22
2022-11-19T02:55:08.736Z,101561.41
2022-11-19T02:57:37.688Z,101571.81
2022-11-19T03:00:25.976Z,101575.34
2022-11-19T03:03:17.850Z,101573.59
2022-11-19T03:05:49.611Z,101572.78
2022-11-19T03:08:17.814Z,101571.91
2022-11-19T03:10:56.451Z,101564.94
2022-11-19T03:13:43.599Z,101564.91
2022-11-19T03:16:36.404Z,101574.56
2022-11-19T03:19:11.711Z,101568.47
2022-11-19T03:21:43.061Z,101575.41
2022-11-19T03:24:15.455Z,101574.53
2022-11-19T03:26:49.261Z,101571.91
2022-11-19T03:29:18.138Z,101566.66
2022-11-19T03:31:51.653Z,101569.28
2022-11-19T03:34:24.646Z,101570.16
2022-11-19T03:36:57.197Z,101571.94
2022-11-19T03:39:26.268Z,101570.16
2022-11-19T03:41:56.570Z,101567.53
2022-11-19T03:44:29.379Z,101563.16
2022-11-19T03:47:02.320Z,101575.44
2022-11-19T03:49:38.147Z,101569.34
2022-11-19T03:52:10.337Z,101564.97
2022-11-19T03:54:39.009Z,101579.00
2022-11-19T03:57:08.782Z,101580.72
2022-11-19T03:59:36.858Z,101582.44
2022-11-19T04:02:07.631Z,101579.81
2022-11-19T04:04:37.528Z,101585.03
2022-11-19T04:07:07.466Z,101581.59
2022-11-19T04:09:35.893Z,101586.81
2022-11-19T04:12:04.216Z,101585.06
2022-11-19T04:14:32.294Z,101587.69
2022-11-19T04:17:00.267Z,101588.59
2022-11-19T04:19:28.181Z,101588.59
2022-11-19T04:21:57.580Z,101589.44
2022-11-19T04:24:25.523Z,101591.28
2022-11-19T04:26:53.701Z,101587.78
2022-11-19T04:29:21.878Z,101588.63
2022-11-19T04:31:49.926Z,101579.00
2022-11-19T04:34:18.442Z,101574.63
2022-11-19T04:36:46.676Z,101575.47
2022-11-19T04:39:16.437Z,101582.44
2022-11-19T04:41:44.715Z,101574.56
2022-11-19T04:44:12.697Z,101576.28
2022-11-19T04:46:40.570Z,101580.63
2022-11-19T04:49:08.467Z,101577.03
2022-11-19T04:51:36.548Z,101578.75
2022-11-19T04:54:04.775Z,101576.16
2022-11-19T04:56:33.992Z,101577.00
2022-11-19T04:59:02.235Z,101575.28
2022-11-19T05:01:30.187Z,101572.66
2022-11-19T05:03:58.174Z,101571.75
2022-11-19T05:06:26.047Z,101570.06
2022-11-19T05:08:53.963Z,101568.28
2022-11-19T05:11:21.876Z,101567.50
2022-11-19T05:13:51.179Z,101563.13
2022-11-19T05:16:19.231Z,101567.50
2022-11-19T05:18:47.190Z,101574.47
2022-11-19T05:21:15.223Z,101574.47
2022-11-19T05:23:43.101Z,101579.69
2022-11-19T05:26:11.001Z,101577.88
2022-11-19T05:28:39.964Z,101583.06
2022-11-19T05:31:10.745Z,101573.41
2022-11-19T05:33:38.633Z,101573.34
2022-11-19T05:36:07.567Z,101571.53
2022-11-19T05:38:35.616Z,101568.81
2022-11-19T05:41:03.624Z,101568.78
2022-11-19T05:43:31.767Z,101586.25
2022-11-19T05:46:01.277Z,101584.44
2022-11-19T05:48:31.116Z,101580.94
2022-11-19T05:50:59.675Z,101579.22
2022-11-19T05:53:28.030Z,101585.22
2022-11-19T05:55:56.232Z,101590.50
2022-11-19T05:58:24.322Z,101585.22
2022-11-19T06:00:56.237Z,101589.50
2022-11-19T06:03:24.496Z,101589.50
2022-11-19T06:05:54.143Z,101584.22
2022-11-19T06:08:22.239Z,101585.09
2022-11-19T06:10:50.149Z,101577.22
2022-11-19T06:13:20.015Z,101590.38
2022-11-19T06:15:48.173Z,101592.13
2022-11-19T06:18:16.084Z,101585.22
2022-11-19T06:20:44.176Z,101551.28
2022-11-19T06:23:13.884Z,101584.34
2022-11-19T06:25:41.996Z,101579.84
2022-11-19T06:28:10.014Z,101569.34
2022-11-19T06:30:37.977Z,101575.34
2022-11-19T06:33:06.170Z,101577.03
2022-11-19T06:35:34.874Z,101579.66
2022-11-19T06:38:03.073Z,101583.09
2022-11-19T06:40:32.559Z,101586.59
2022-11-19T06:43:00.480Z,101579.66
2022-11-19T06:45:28.705Z,101577.03
2022-11-19T06:47:56.690Z,101579.66
2022-11-19T06:50:24.874Z,101577.19
2022-11-19T06:52:52.950Z,101580.66
2022-11-19T06:55:21.048Z,101586.78
2022-11-19T06:57:50.388Z,101589.50
2022-11-19T07:00:19.011Z,101595.59
2022-11-19T07:02:48.581Z,101593.81
2022-11-19T07:05:16.601Z,101592.94
2022-11-19T07:07:44.590Z,101588.50
2022-11-19T07:10:12.513Z,101577.19
2022-11-19T07:12:42.279Z,101584.09
2022-11-19T07:15:12.386Z,101578.88
2022-11-19T07:17:41.185Z,101584.16
2022-11-19T07:20:10.500Z,101580.59
2022-11-19T07:22:38.548Z,101583.19
2022-11-19T07:25:07.365Z,101584.88
2022-11-19T07:27:35.199Z,101583.03
2022-11-19T07:30:05.124Z,101585.72
2022-11-19T07:32:34.844Z,101585.59
2022-11-19T07:35:03.211Z,101586.38
2022-11-19T07:37:31.251Z,101580.25
2022-11-19T07:39:59.362Z,101586.28
2022-11-19T07:42:44.765Z,101586.28
2022-11-19T07:45:13.164Z,101570.41
2022-11-19T07:47:43.073Z,101571.19
2022-11-19T07:50:11.993Z,101571.16
2022-11-19T07:52:40.049Z,101570.16
2022-11-19T07:55:08.527Z,101557.06
2022-11-19T07:57:36.912Z,101568.41
2022-11-19T08:00:06.008Z,101562.88
2022-11-19T08:02:34.105Z,101565.38
2022-11-19T08:05:04.286Z,101562.63
2022-11-19T08:07:32.266Z,101564.25
2022-11-19T08:10:00.289Z,101571.25
2022-11-19T08:12:28.355Z,101565.19
2022-11-19T08:14:56.486Z,101567.84
2022-11-19T08:17:41.961Z,101561.75
2022-11-19T08:20:12.300Z,101564.00
2022-11-19T08:22:42.202Z,101551.66
2022-11-19T08:25:10.334Z,101557.47
2022-11-19T08:27:38.217Z,101560.00
2022-11-19T08:30:07.030Z,101562.78
2022-11-19T08:32:37.371Z,101558.31
2022-11-19T08:35:05.957Z,101566.31
2022-11-19T08:37:35.356Z,101559.25
2022-11-19T08:40:03.380Z,101557.19
2022-11-19T08:42:48.727Z,101565.84
2022-11-19T08:45:20.661Z,101550.75
2022-11-19T08:47:48.962Z,101560.41
2022-11-19T08:50:17.322Z,101558.59
2022-11-19T08:52:46.727Z,101557.72
2022-11-19T08:55:14.968Z,101559.50
2022-11-19T08:57:43.257Z,101557.03
2022-11-19T09:00:12.428Z,101562.44
2022-11-19T09:02:40.837Z,101553.75
2022-11-19T09:05:14.284Z,101555.53
2022-11-19T09:07:42.783Z,101554.56
2022-11-19T09:10:12.996Z,101556.34
2022-11-19T09:12:40.919Z,101552.53
2022-11-19T09:15:09.744Z,101558.56
2022-11-19T09:17:42.398Z,101560.25
2022-11-19T09:20:13.442Z,101557.72
2022-11-19T09:22:41.301Z,101549.00
2022-11-19T09:25:11.188Z,101546.22
2022-11-19T09:27:39.723Z,101551.56
2022-11-19T09:30:09.603Z,101550.75
2022-11-19T09:32:37.497Z,101558.03
2022-11-19T09:35:05.807Z,101556.94
2022-11-19T09:37:34.232Z,101559.38
2022-11-19T09:40:02.250Z,101553.88
2022-11-19T09:42:40.774Z,101558.41
2022-11-19T09:45:27.204Z,101551.47
2022-11-19T09:48:15.054Z,101561.00
2022-11-19T09:50:53.435Z,101560.94
2022-11-19T09:53:23.881Z,101554.66
2022-11-19T09:55:54.969Z,101555.41
2022-11-19T09:58:28.594Z,101557.06
2022-11-19T10:00:56.463Z,101548.09
2022-11-19T10:03:32.959Z,101556.84
2022-11-19T10:06:27.120Z,101557.34
2022-11-19T10:09:24.843Z,101561.75
2022-11-19T10:12:04.366Z,101559.97
2022-11-19T10:14:50.139Z,101551.84
2022-11-19T10:17:28.472Z,101559.56
2022-11-19T10:20:13.623Z,101553.22
2022-11-19T10:22:57.004Z,101551.03
2022-11-19T10:25:29.450Z,101547.25
2022-11-19T10:28:04.905Z,101539.09
2022-11-19T10:30:34.789Z,101542.28
2022-11-19T10:33:08.713Z,101544.78
2022-11-19T10:35:41.460Z,101535.72
2022-11-19T10:38:28.413Z,101533.00
2022-11-19T10:41:01.350Z,101524.31
2022-11-19T10:43:36.006Z,101521.72
2022-11-19T10:46:07.670Z,101525.16
2022-11-19T10:48:42.613Z,101531.28
2022-11-19T10:51:15.491Z,101518.56
2022-11-19T10:53:45.716Z,101516.34
2022-11-19T10:56:16.595Z,101514.34
2022-11-19T10:58:48.515Z,101510.53
2022-11-19T11:01:26.977Z,101504.25
2022-11-19T11:04:05.800Z,101503.84
2022-11-19T11:06:51.459Z,101501.97
2022-11-19T11:09:33.394Z,101495.66
2022-11-19T11:12:28.665Z,101502.66
2022-11-19T11:15:01.483Z,101500.00
2022-11-19T11:17:35.215Z,101494.56
2022-11-19T11:20:07.715Z,101493.50
2022-11-19T11:22:37.628Z,101486.03
2022-11-19T11:25:20.329Z,101475.44
2022-11-19T11:28:06.920Z,101474.91
2022-11-19T11:30:35.884Z,101472.91
2022-11-19T11:33:27.718Z,101459.41
2022-11-19T11:35:58.325Z,101468.69
2022-11-19T11:38:28.779Z,101452.72
2022-11-19T11:41:35.261Z,101453.47
2022-11-19T11:44:05.286Z,101450.78
2022-11-19T11:46:40.515Z,101440.13
2022-11-19T11:49:24.189Z,101438.03
2022-11-19T11:52:02.817Z,101431.13
2022-11-19T11:54:31.386Z,101433.38
2022-11-19T11:57:16.048Z,101429.03
2022-11-19T11:59:46.434Z,101431.78
2022-11-19T12:02:24.377Z,101426.59
2022-11-19T12:04:54.966Z,101437.78
2022-11-19T12:07:51.743Z,101428.38
2022-11-19T12:10:26.835Z,101427.50
2022-11-19T12:13:26.537Z,101422.38
2022-11-19T12:16:04.378Z,101429.53
2022-11-19T12:18:40.490Z,101421.44
2022-11-19T12:21:12.221Z,101426.97
2022-11-19T12:24:01.244Z,101420.00
2022-11-19T12:26:39.074Z,101425.31
2022-11-19T12:29:17.794Z,101419.91
2022-11-19T12:32:07.201Z,101421.63
2022-11-19T12:35:02.043Z,101419.59
2022-11-19T12:37:45.062Z,101420.00
2022-11-19T12:40:23.842Z,101411.50
2022-11-19T12:43:00.066Z,101405.31
2022-11-19T12:45:38.983Z,101398.41
2022-11-19T12:48:25.623Z,101417.94
2022-11-19T12:51:01.877Z,101408.59
2022-11-19T12:53:54.694Z,101412.50
2022-11-19T12:56:37.524Z,101411.22
2022-11-19T12:59:18.917Z,101412.84
2022-11-19T13:01:51.850Z,101406.66
2022-11-19T13:04:28.750Z,101406.09
2022-11-19T13:07:02.880Z,101407.59
2022-11-19T13:09:37.118Z,101409.78
2022-11-19T13:12:09.470Z,101407.72
2022-11-19T13:14:41.598Z,101409.03
2022-11-19T13:17:18.003Z,101403.25
2022-11-19T13:19:52.418Z,101408.16
2022-11-19T13:22:23.004Z,101405.13
2022-11-19T13:24:57.191Z,101400.66
2022-11-19T13:27:28.518Z,101401.50
2022-11-19T13:30:02.123Z,101403.22
2022-11-19T13:32:38.747Z,101398.09
2022-11-19T13:35:17.581Z,101394.91
2022-11-19T13:37:58.315Z,101395.16
2022-11-19T13:40:35.667Z,101390.94
2022-11-19T13:43:33.306Z,101387.63
2022-11-19T13:46:08.949Z,101386.31
2022-11-19T13:48:43.210Z,101380.16
2022-11-19T13:51:28.054Z,101382.50
2022-11-19T13:54:02.564Z,101369.66
2022-11-19T13:56:43.466Z,101381.28
2022-11-19T13:59:28.841Z,101383.72
2022-11-19T14:02:11.226Z,101382.31
2022-11-19T14:05:09.845Z,101378.63
2022-11-19T14:07:53.604Z,101380.38
2022-11-19T14:10:27.353Z,101386.31
2022-11-19T14:13:23.476Z,101375.69
2022-11-19T14:16:21.568Z,101376.63
2022-11-19T14:19:10.243Z,101375.75
2022-11-19T14:22:08.401Z,101370.94
2022-11-19T14:25:11.543Z,101374.63
2022-11-19T14:27:39.871Z,101372.34
2022-11-19T14:30:12.378Z,101371.31
2022-11-19T14:32:46.981Z,101373.63
2022-11-19T14:35:42.598Z,101378.41
2022-11-19T14:38:31.754Z,101386.34
2022-11-19T14:41:08.248Z,101386.88
2022-11-19T14:44:09.892Z,101388.44
2022-11-19T14:46:41.569Z,101387.50
2022-11-19T14:49:25.296Z,101388.56
2022-11-19T14:51:55.759Z,101385.78
2022-11-19T14:54:40.989Z,101382.25
2022-11-19T14:57:27.745Z,101376.19
2022-11-19T15:00:00.074Z,101376.09
2022-11-19T15:02:33.646Z,101376.00
2022-11-19T15:05:07.191Z,101373.56
2022-11-19T15:07:41.699Z,101377.69
2022-11-19T15:10:34.576Z,101375.34
2022-11-19T15:13:23.562Z,101366.47
2022-11-19T15:15:59.035Z,101360.22
2022-11-19T15:19:08.064Z,101347.63
2022-11-19T15:22:01.992Z,101351.25
2022-11-19T15:24:39.136Z,101341.63
2022-11-19T15:27:19.198Z,101347.78
2022-11-19T15:30:05.028Z,101343.41
2022-11-19T15:32:46.852Z,101347.19
2022-11-19T15:35:49.423Z,101331.59
2022-11-19T15:38:30.767Z,101328.22
2022-11-19T15:41:02.300Z,101333.63
2022-11-19T15:43:34.743Z,101328.69
2022-11-19T15:46:08.808Z,101333.22
2022-11-19T15:48:42.937Z,101326.19
2022-11-19T15:51:17.461Z,101316.75
2022-11-19T15:53:59.748Z,101323.81
2022-11-19T15:56:30.882Z,101320.47
2022-11-19T15:58:59.630Z,101313.44
2022-11-19T16:01:28.401Z,101307.38
2022-11-19T16:03:56.959Z,101309.25
2022-11-19T16:06:29.284Z,101309.44
2022-11-19T16:09:00.245Z,101306.84
2022-11-19T16:11:52.443Z,101307.00
2022-11-19T16:14:39.328Z,101309.63
2022-11-19T16:17:41.648Z,101303.19
2022-11-19T16:20:22.036Z,101306.78
2022-11-19T16:22:57.656Z,101302.25
2022-11-19T16:25:34.276Z,101302.91
2022-11-19T16:28:05.868Z,101299.38
2022-11-19T16:30:46.403Z,101301.03
2022-11-19T16:33:18.873Z,101304.38
2022-11-19T16:35:52.605Z,101292.09
2022-11-19T16:38:28.290Z,101293.97
2022-11-19T16:41:14.738Z,101289.63
2022-11-19T16:43:47.254Z,101283.53
2022-11-19T16:46:18.084Z,101280.88
2022-11-19T16:49:01.317Z,101279.94
2022-11-19T16:51:36.027Z,101278.13
2022-11-19T16:54:07.591Z,101276.34
2022-11-19T16:56:45.278Z,101279.00
2022-11-19T16:59:21.443Z,101269.47
2022-11-19T17:01:58.482Z,101280.88
2022-11-19T17:04:30.457Z,101280.16
2022-11-19T17:07:00.423Z,101282.03
2022-11-19T17:09:41.707Z,101274.84
2022-11-19T17:12:27.885Z,101278.81
2022-11-19T17:15:01.373Z,101276.47
2022-11-19T17:17:40.672Z,101287.97
2022-11-19T17:21:00.698Z,101279.47
2022-11-19T17:23:31.725Z,101284.84
2022-11-19T17:26:03.592Z,101278.78
2022-11-19T17:28:38.099Z,101282.13
2022-11-19T17:31:14.965Z,101281.06
2022-11-19T17:33:52.053Z,101284.53
2022-11-19T17:36:22.393Z,101285.25
2022-11-19T17:38:50.640Z,101287.75
2022-11-19T17:41:42.918Z,101276.34
2022-11-19T17:44:31.915Z,101273.47
2022-11-19T17:47:00.380Z,101280.47
2022-11-19T17:49:28.240Z,101284.03
2022-11-19T17:51:56.385Z,101277.00
2022-11-19T17:54:24.602Z,101274.31
2022-11-19T17:56:53.772Z,101276.28
2022-11-19T17:59:21.645Z,101287.72
2022-11-19T18:01:49.715Z,101285.03
2022-11-19T18:04:18.173Z,101281.34
2022-11-19T18:06:47.291Z,101280.47
2022-11-19T18:09:15.539Z,101274.00
2022-11-19T18:11:43.464Z,101279.13
2022-11-19T18:14:13.106Z,101277.09
2022-11-19T18:16:42.966Z,101277.25
2022-11-19T18:19:12.732Z,101277.34
2022-11-19T18:21:41.885Z,101282.41
2022-11-19T18:24:12.416Z,101284.81
2022-11-19T18:26:40.337Z,101280.41
2022-11-19T18:29:08.233Z,101280.66
2022-11-19T18:31:43.978Z,101268.59
2022-11-19T18:34:16.954Z,101270.47
2022-11-19T18:36:44.904Z,101266.09
2022-11-19T18:39:13.402Z,101274.84
2022-11-19T18:41:41.575Z,101275.72
2022-11-19T18:44:32.561Z,101273.88
2022-11-19T18:47:02.136Z,101273.00
2022-11-19T18:49:30.629Z,101268.97
2022-11-19T18:51:58.784Z,101273.47
2022-11-19T18:54:26.698Z,101277.06
2022-11-19T18:56:54.732Z,101278.09
2022-11-19T18:59:23.326Z,101280.47
2022-11-19T19:01:55.713Z,101266.59
2022-11-19T19:04:25.679Z,101268.13
2022-11-19T19:06:53.880Z,101274.88
2022-11-19T19:09:22.453Z,101279.00
2022-11-19T19:12:18.021Z,101271.88
2022-11-19T19:14:48.158Z,101274.75
2022-11-19T19:17:16.773Z,101271.00
2022-11-19T19:19:46.259Z,101273.69
2022-11-19T19:22:14.138Z,101265.84
2022-11-19T19:24:42.435Z,101265.91
2022-11-19T19:27:11.187Z,101265.72
2022-11-19T19:29:39.697Z,101267.66
2022-11-19T19:32:08.137Z,101272.19
2022-11-19T19:34:37.206Z,101275.84
2022-11-19T19:37:06.573Z,101275.06
2022-11-19T19:39:34.631Z,101275.06
2022-11-19T19:42:02.586Z,101267.00
2022-11-19T19:44:30.474Z,101281.00
2022-11-19T19:46:58.701Z,101283.63
2022-11-19T19:49:26.813Z,101292.44
2022-11-19T19:51:54.905Z,101281.09
2022-11-19T19:54:24.183Z,101280.13
2022-11-19T19:56:52.752Z,101277.75
2022-11-19T19:59:20.979Z,101286.56
2022-11-19T20:01:50.802Z,101282.91
2022-11-19T20:04:18.821Z,101279.31
2022-11-19T20:06:48.049Z,101285.41
2022-11-19T20:09:16.254Z,101287.22
2022-11-19T20:11:45.794Z,101285.47
2022-11-19T20:14:13.662Z,101287.50
2022-11-19T20:16:42.603Z,101284.09
2022-11-19T20:19:14.404Z,101275.81
2022-11-19T20:21:42.803Z,101280.41
2022-11-19T20:24:12.949Z,101278.44
2022-11-19T20:26:42.339Z,101273.88
2022-11-19T20:29:14.609Z,101270.50
2022-11-19T20:31:47.183Z,101273.00
2022-11-19T20:34:16.165Z,101278.88
2022-11-19T20:36:44.512Z,101280.50
2022-11-19T20:39:12.722Z,101274.31
2022-11-19T20:41:57.862Z,101279.81
2022-11-19T20:44:27.259Z,101277.16
2022-11-19T20:46:56.446Z,101273.59
2022-11-19T20:49:25.793Z,101275.31
2022-11-19T20:51:54.653Z,101265.13
2022-11-19T20:54:23.050Z,101266.84
2022-11-19T20:56:52.019Z,101267.16
2022-11-19T20:59:20.636Z,101264.44
2022-11-19T21:01:51.149Z,101266.16
2022-11-19T21:04:20.119Z,101261.81
2022-11-19T21:06:49.800Z,101256.41
2022-11-19T21:09:19.694Z,101255.69
2022-11-19T21:11:48.122Z,101253.88
2022-11-19T21:14:16.006Z,101251.97
2022-11-19T21:16:43.956Z,101244.91
2022-11-19T21:19:14.154Z,101239.66
2022-11-19T21:21:42.295Z,101246.53
2022-11-19T21:24:10.240Z,101241.00
2022-11-19T21:26:39.014Z,101235.66
2022-11-19T21:29:07.256Z,101240.34
2022-11-19T21:31:41.562Z,101234.28
2022-11-19T21:34:11.286Z,101230.00
2022-11-19T21:36:41.909Z,101222.91
2022-11-19T21:39:11.174Z,101219.28
2022-11-19T21:41:39.506Z,101229.13
2022-11-19T21:44:09.238Z,101228.25
2022-11-19T21:46:38.007Z,101219.44
2022-11-19T21:49:06.403Z,101212.66
2022-11-19T21:51:34.787Z,101213.50
2022-11-19T21:54:04.273Z,101217.91
2022-11-19T21:56:38.284Z,101212.38
2022-11-19T21:59:07.921Z,101203.72
2022-11-19T22:01:36.056Z,101205.41
2022-11-19T22:04:04.487Z,101201.84
2022-11-19T22:06:33.613Z,101200.84
2022-11-19T22:09:03.227Z,101202.38
2022-11-19T22:11:31.685Z,101204.06
2022-11-19T22:14:02.146Z,101201.53
2022-11-19T22:16:30.961Z,101197.78
2022-11-19T22:18:58.911Z,101190.72
2022-11-19T22:21:27.341Z,101194.97
2022-11-19T22:23:55.289Z,101193.66
2022-11-19T22:26:25.130Z,101198.25
2022-11-19T22:28:53.039Z,101189.16
2022-11-19T22:31:20.921Z,101194.56
2022-11-19T22:33:51.676Z,101192.03
2022-11-19T22:36:21.270Z,101191.97
2022-11-19T22:38:49.918Z,101191.19
2022-11-19T22:41:19.921Z,101195.78
2022-11-19T22:43:49.582Z,101195.59
2022-11-19T22:46:18.149Z,101195.84
2022-11-19T22:48:46.047Z,101196.03
2022-11-19T22:51:16.245Z,101197.84
2022-11-19T22:53:44.586Z,101192.53
2022-11-19T22:56:16.351Z,101198.06
2022-11-19T22:58:45.059Z,101195.06
2022-11-19T23:01:19.584Z,101189.09
2022-11-19T23:03:47.815Z,101186.38
2022-11-19T23:06:15.728Z,101193.72
2022-11-19T23:08:44.031Z,101187.38
2022-11-19T23:11:13.222Z,101187.22
2022-11-19T23:13:42.691Z,101187.09
2022-11-19T23:16:12.767Z,101189.63
2022-11-19T23:18:43.402Z,101175.41
2022-11-19T23:21:13.165Z,101175.47
2022-11-19T23:23:43.265Z,101178.03
2022-11-19T23:26:13.429Z,101172.53
2022-11-19T23:28:41.488Z,101173.72
2022-11-19T23:31:11.357Z,101169.19
2022-11-19T23:33:39.241Z,101179.88
2022-11-19T23:36:12.292Z,101174.63
2022-11-19T23:38:40.930Z,101173.22
2022-11-19T23:41:11.277Z,101163.44
2022-11-19T23:43:40.076Z,101164.31
2022-11-19T23:46:10.136Z,101161.75
2022-11-19T23:48:39.494Z,101164.31
2022-11-19T23:51:14.132Z,101166.84
2022-11-19T23:53:42.691Z,101157.28
2022-11-19T23:56:11.445Z,101159.69
2022-11-19T23:58:40.122Z,101154.34
